createdAt,value
2023-01-17T00:03:42.295Z,3584
2023-01-17T00:13:42.255Z,3584
2023-01-17T00:23:42.216Z,3587
2023-01-17T00:33:42.232Z,3589
2023-01-17T00:43:42.230Z,3587
2023-01-17T00:53:42.194Z,3589
2023-01-17T01:03:42.629Z,3579
2023-01-17T01:13:42.210Z,3581
2023-01-17T01:23:42.162Z,3574
2023-01-17T01:33:42.213Z,3579
2023-01-17T01:43:42.194Z,3579
2023-01-17T01:53:42.608Z,3574
2023-01-17T02:03:42.249Z,3576
2023-01-17T02:13:42.181Z,3579
2023-01-17T02:23:42.147Z,3579
2023-01-17T02:33:42.175Z,3581
2023-01-17T02:43:42.159Z,3584
2023-01-17T02:53:42.526Z,3576
2023-01-17T03:03:42.159Z,3579
2023-01-17T03:13:42.146Z,3579
2023-01-17T03:23:42.525Z,3574
2023-01-17T03:33:42.143Z,3576
2023-01-17T03:43:42.122Z,3579
2023-01-17T03:53:42.073Z,3579
2023-01-17T04:03:42.101Z,3584
2023-01-17T04:13:42.535Z,3576
2023-01-17T04:23:42.508Z,3574
2023-01-17T04:33:42.091Z,3574
2023-01-17T04:43:42.525Z,3571
2023-01-17T04:53:42.058Z,3574
2023-01-17T05:03:42.514Z,3571
2023-01-17T05:13:42.071Z,3574
2023-01-17T05:23:42.037Z,3576
2023-01-17T05:33:42.077Z,3579
2023-01-17T05:43:42.065Z,3579
2023-01-17T05:53:42.435Z,3574
2023-01-17T06:03:42.075Z,3574
2023-01-17T06:13:42.468Z,3574
2023-01-17T06:23:42.020Z,3574
2023-01-17T06:33:42.046Z,3576
2023-01-17T06:43:42.032Z,3579
2023-01-17T06:53:41.994Z,3579
2023-01-17T07:03:42.051Z,3581
2023-01-17T07:13:42.005Z,3581
2023-01-17T07:23:41.983Z,3581
2023-01-17T07:33:42.025Z,3581
2023-01-17T07:43:42.426Z,3574
2023-01-17T08:03:43.987Z,3556
2023-01-17T08:23:41.951Z,3558
2023-01-17T08:33:41.990Z,3563
2023-01-17T08:43:42.606Z,3566
2023-01-17T08:53:42.360Z,3563
2023-01-17T09:03:41.982Z,3569
2023-01-17T09:13:41.961Z,3566
2023-01-17T09:23:41.970Z,3574
2023-01-17T09:33:41.961Z,3574
2023-01-17T09:43:41.958Z,3574
2023-01-17T09:53:42.341Z,3574
2023-01-17T10:03:42.074Z,3574
2023-01-17T10:13:41.936Z,3576
2023-01-17T10:23:41.898Z,3576
2023-01-17T10:33:41.924Z,3579
2023-01-17T10:43:42.339Z,3576
2023-01-17T10:53:43.818Z,3563
2023-01-17T11:03:42.316Z,3569
2023-01-17T11:13:41.897Z,3574
2023-01-17T11:23:41.860Z,3579
2023-01-17T11:33:41.851Z,3581
2023-01-17T11:43:42.286Z,3579
2023-01-17T11:53:41.852Z,3581
2023-01-17T12:03:41.919Z,3587
2023-01-17T12:13:41.846Z,3584
2023-01-17T12:23:41.810Z,3589
2023-01-17T12:33:42.229Z,3589
2023-01-17T12:43:41.776Z,3589
2023-01-17T12:53:42.166Z,3589
2023-01-17T13:03:41.778Z,3587
2023-01-17T13:13:41.770Z,3589
2023-01-17T13:23:41.720Z,3592
2023-01-17T13:33:41.757Z,3592
2023-01-17T13:43:41.732Z,3592
2023-01-17T13:53:41.718Z,3592
2023-01-17T14:03:41.730Z,3592
2023-01-17T14:13:41.709Z,3592
2023-01-17T14:23:41.685Z,3592
2023-01-17T14:33:41.695Z,3589
2023-01-17T14:43:41.676Z,3589
2023-01-17T14:53:41.653Z,3592
2023-01-17T15:03:41.659Z,3589
2023-01-17T15:13:44.757Z,3584
2023-01-17T15:23:41.667Z,3587
2023-01-17T15:33:41.625Z,3576
2023-01-17T15:43:41.684Z,3584
2023-01-17T16:03:41.603Z,3574
2023-01-17T16:13:41.632Z,3579
2023-01-17T16:23:41.576Z,3581
2023-01-17T16:33:42.046Z,3579
2023-01-17T16:43:41.628Z,3579
2023-01-17T16:53:41.587Z,3584
2023-01-17T17:03:41.585Z,3584
2023-01-17T17:23:41.553Z,3581
2023-01-17T17:33:41.988Z,3576
2023-01-17T17:43:41.564Z,3579
2023-01-17T17:53:41.525Z,3579
2023-01-17T18:03:41.551Z,3574
2023-01-17T18:13:41.539Z,3579
2023-01-17T18:23:41.495Z,3574
2023-01-17T18:33:41.946Z,3571
2023-01-17T18:43:41.520Z,3574
2023-01-17T18:53:41.487Z,3579
2023-01-17T19:03:41.501Z,3579
2023-01-17T19:13:41.497Z,3579
2023-01-17T19:23:41.455Z,3584
2023-01-17T19:33:41.497Z,3584
2023-01-17T19:43:41.482Z,3584
2023-01-17T19:53:41.434Z,3584
2023-01-17T20:03:41.477Z,3584
2023-01-17T20:13:41.476Z,3587
2023-01-17T20:23:41.411Z,3587
2023-01-17T20:33:41.453Z,3587
2023-01-17T20:43:41.443Z,3589
2023-01-17T20:53:41.415Z,3589
2023-01-17T21:03:41.420Z,3589
2023-01-17T21:13:41.416Z,3587
2023-01-17T21:23:41.389Z,3589
2023-01-17T21:33:41.415Z,3584
2023-01-17T21:43:41.431Z,3579
2023-01-17T21:53:41.381Z,3581
2023-01-17T22:03:41.369Z,3574
2023-01-17T22:13:41.397Z,3576
2023-01-17T22:23:41.361Z,3579
2023-01-17T22:33:41.366Z,3579
2023-01-17T22:43:41.427Z,3584
2023-01-17T22:53:41.345Z,3584
2023-01-17T23:03:41.424Z,3584
2023-01-17T23:13:41.348Z,3584
2023-01-17T23:23:41.323Z,3587
2023-01-17T23:33:41.340Z,3587
2023-01-17T23:43:41.355Z,3584
2023-01-17T23:53:57.301Z,3569
